Сообщение об ошибке

  • Warning: ini_set(): Headers already sent. You cannot change the session module's ini settings at this time in drupal_environment_initialize() (line 699 of /home/a/auditpro/2.auditpro.beget.tech/public_html/st/includes/bootstrap.inc).
  • Warning: ini_set(): Headers already sent. You cannot change the session module's ini settings at this time in drupal_environment_initialize() (line 700 of /home/a/auditpro/2.auditpro.beget.tech/public_html/st/includes/bootstrap.inc).
  • Warning: ini_set(): Headers already sent. You cannot change the session module's ini settings at this time in drupal_environment_initialize() (line 701 of /home/a/auditpro/2.auditpro.beget.tech/public_html/st/includes/bootstrap.inc).
  • Warning: ini_set(): Headers already sent. You cannot change the session module's ini settings at this time in drupal_environment_initialize() (line 704 of /home/a/auditpro/2.auditpro.beget.tech/public_html/st/includes/bootstrap.inc).
  • Warning: ini_set(): Headers already sent. You cannot change the session module's ini settings at this time in drupal_environment_initialize() (line 706 of /home/a/auditpro/2.auditpro.beget.tech/public_html/st/includes/bootstrap.inc).
  • Warning: ini_set(): Headers already sent. You cannot change the session module's ini settings at this time in include_once() (line 290 of /home/a/auditpro/2.auditpro.beget.tech/public_html/st/sites/default/settings.php).
  • Warning: ini_set(): Headers already sent. You cannot change the session module's ini settings at this time in include_once() (line 291 of /home/a/auditpro/2.auditpro.beget.tech/public_html/st/sites/default/settings.php).
  • Warning: ini_set(): Headers already sent. You cannot change the session module's ini settings at this time in include_once() (line 299 of /home/a/auditpro/2.auditpro.beget.tech/public_html/st/sites/default/settings.php).
  • Warning: ini_set(): Headers already sent. You cannot change the session module's ini settings at this time in include_once() (line 306 of /home/a/auditpro/2.auditpro.beget.tech/public_html/st/sites/default/settings.php).
  • Warning: ini_set(): Headers already sent. You cannot change the session module's ini settings at this time in drupal_settings_initialize() (line 826 of /home/a/auditpro/2.auditpro.beget.tech/public_html/st/includes/bootstrap.inc).
  • Warning: ini_set(): Headers already sent. You cannot change the session module's ini settings at this time in drupal_settings_initialize() (line 835 of /home/a/auditpro/2.auditpro.beget.tech/public_html/st/includes/bootstrap.inc).
  • Warning: session_name(): Cannot change session name when headers already sent in drupal_settings_initialize() (line 838 of /home/a/auditpro/2.auditpro.beget.tech/public_html/st/includes/bootstrap.inc).

Александровская Слобода

СКИДКИ НА СМАРТФОНЫ!

Карта отелей и гостиниц, располагающихся рядом с аэропортом Александровская Слобода :

Александровская Слобода Тверская область 56° 50' 16.26" N, 36° 39' 41.3388" E
Александровская Слобода Тверская область 56° 50' 16.26" N, 36° 39' 41.3388" E
Код аэродрома ИКАО
UUTL
Код аэродрома RU
УУТЛ
Координаты
N56.83785° E036.66148°
Превышение над уровнем моря
121
Основная полоса
Курс магнитный
Длина основной ВПП
12
Ширина основной ВПП
12
Покрытие основной ВПП
Нетвёрдое (грунт)
Освещение ВПП
Нет
Тип: 
Вертодром
Класс аэродрома: 
Принадлежность: 
АОН
Статус: 
Действующий
Сайт: 
E-mail аэродрома: 
f29012001@gmail.com
Страна: 
Россия
Регион: 
Тверская область
Город: 
Дополнительная информация: 
Оператор: ООО МП "Икар-Медсервис". АНППП зарегистрирован в МТУ ВТ ЦР ФАВТ 30 июл 2015 №ЦП3-413. Обеспечивает ВС до 3100 кг. Дневная маркировка выполнена сигнальными дорожными конусами согласно приложению №7 ФАП-69.

Скидки на навигаторы!

Найти трансфер

С помощью этой формы Вы можете найти трансфер из аэропорта Александровская Слобода в город, аэропорт или вокзал:

Погода в аэропортах:

Авиационная погода в Самсуне

Регион: 
Погода METAR: 
LTFH 301950Z 00000KT 9999 -SHRA FEW019 BKN028 BKN080 05/05 Q1012 NOSIG
Время наблюдения
2023-01-30T19:50:00Z
Температура C
5.0
Точка росы
5.0
Направление ветра
0
Скорость ветра (узлы)
0
Метео видимость
6.21
Облачность
FEW
BKN
BKN
Нижняя граница облачности (футы)
1900
2800
8000
Явления погоды
-SHRA
Условия полета
MVFR
FEW – незначительная облачность; BKN – значительная (рассеянная, разорванная) облачность;
-SHRA - слабый ливневой дождь;

Авиационная погода в Савонлинна

Регион: 
Погода METAR: 
EFSA 301920Z AUTO 19009KT 6000 -SN OVC004 00/M00 Q0970
Время наблюдения
2023-01-30T19:20:00Z
Температура C
0.0
Точка росы
0.0
Направление ветра
190
Скорость ветра (узлы)
9
Метео видимость
3.73
Облачность
OVC
Нижняя граница облачности (футы)
400
Явления погоды
-SN
Условия полета
LIFR
OVC – сплошная облачность;
-SN – слабый снег;

Авиационная погода в Перми

Регион: 
Погода METAR: 
USPP 301930Z 20004MPS 9000 -SN BKN017 M07/M10 Q1010 R21/490340 NOSIG RMK QFE747
Время наблюдения
2023-01-30T19:30:00Z
Температура C
-7.0
Точка росы
-10.0
Направление ветра
200
Скорость ветра (узлы)
8
Метео видимость
5.59
Облачность
BKN
Нижняя граница облачности (футы)
1700
Явления погоды
-SN
Условия полета
MVFR
Аэропорт подробнее: 
BKN – значительная (рассеянная, разорванная) облачность;
-SN – слабый снег;

Авиационная погода в Волгограде

Регион: 
Погода METAR: 
URWW 301930Z 17006MPS 4600 BR BKN034 00/M02 Q1013 R06/290055 TEMPO 0300 FZFG OVC002
Время наблюдения
2023-01-30T19:30:00Z
Температура C
0.0
Точка росы
-2.0
Направление ветра
170
Скорость ветра (узлы)
12
Метео видимость
2.86
Облачность
BKN
Нижняя граница облачности (футы)
3400
Явления погоды
BR
Условия полета
IFR
Аэропорт подробнее: 
BKN – значительная (рассеянная, разорванная) облачность;
BR – дымка (видимость от 1 до 9 км);